sensor_id;sensor_type;location;lat;lon;timestamp;temperature;humidity
39655;DHT22;25336;59.944;11.010;2022-09-06T00:00:12;12.60;65.20
39655;DHT22;25336;59.944;11.010;2022-09-06T00:02:40;12.60;65.40
39655;DHT22;25336;59.944;11.010;2022-09-06T00:05:07;12.60;65.40
39655;DHT22;25336;59.944;11.010;2022-09-06T00:07:34;12.60;65.50
39655;DHT22;25336;59.944;11.010;2022-09-06T00:09:59;13.40;66.10
39655;DHT22;25336;59.944;11.010;2022-09-06T00:12:26;12.50;65.40
39655;DHT22;25336;59.944;11.010;2022-09-06T00:14:51;12.50;65.40
39655;DHT22;25336;59.944;11.010;2022-09-06T00:17:17;12.50;65.30
39655;DHT22;25336;59.944;11.010;2022-09-06T00:19:43;12.40;65.20
39655;DHT22;25336;59.944;11.010;2022-09-06T00:22:09;12.40;65.10
39655;DHT22;25336;59.944;11.010;2022-09-06T00:24:34;12.40;65.00
39655;DHT22;25336;59.944;11.010;2022-09-06T00:27:05;13.50;65.90
39655;DHT22;25336;59.944;11.010;2022-09-06T00:29:31;12.40;66.10
39655;DHT22;25336;59.944;11.010;2022-09-06T00:31:57;12.30;65.90
39655;DHT22;25336;59.944;11.010;2022-09-06T00:34:24;11.50;64.50
39655;DHT22;25336;59.944;11.010;2022-09-06T00:36:49;12.20;64.90
39655;DHT22;25336;59.944;11.010;2022-09-06T00:39:18;12.20;64.80
39655;DHT22;25336;59.944;11.010;2022-09-06T00:41:43;12.20;65.00
39655;DHT22;25336;59.944;11.010;2022-09-06T00:44:09;12.10;64.90
39655;DHT22;25336;59.944;11.010;2022-09-06T00:46:38;12.10;64.90
39655;DHT22;25336;59.944;11.010;2022-09-06T00:49:27;12.10;65.10
39655;DHT22;25336;59.944;11.010;2022-09-06T00:52:00;12.00;65.20
39655;DHT22;25336;59.944;11.010;2022-09-06T00:54:27;12.00;64.60
39655;DHT22;25336;59.944;11.010;2022-09-06T00:56:53;11.90;64.50
39655;DHT22;25336;59.944;11.010;2022-09-06T00:59:22;11.90;64.60
39655;DHT22;25336;59.944;11.010;2022-09-06T01:01:48;11.90;64.70
39655;DHT22;25336;59.944;11.010;2022-09-06T01:04:14;11.80;64.70
39655;DHT22;25336;59.944;11.010;2022-09-06T01:09:36;11.80;65.10
39655;DHT22;25336;59.944;11.010;2022-09-06T01:15:02;11.70;64.70
39655;DHT22;25336;59.944;11.010;2022-09-06T01:23:28;11.60;65.30
39655;DHT22;25336;59.944;11.010;2022-09-06T01:29:06;11.50;65.10
39655;DHT22;25336;59.944;11.010;2022-09-06T01:31:43;11.40;64.60
39655;DHT22;25336;59.944;11.010;2022-09-06T01:34:23;11.30;64.90
39655;DHT22;25336;59.944;11.010;2022-09-06T01:37:03;11.30;65.10
39655;DHT22;25336;59.944;11.010;2022-09-06T01:39:32;11.30;65.20
39655;DHT22;25336;59.944;11.010;2022-09-06T01:42:09;12.20;65.70
39655;DHT22;25336;59.944;11.010;2022-09-06T01:44:36;11.20;65.50
39655;DHT22;25336;59.944;11.010;2022-09-06T02:01:39;11.10;66.10
39655;DHT22;25336;59.944;11.010;2022-09-06T02:06:40;11.10;66.10
39655;DHT22;25336;59.944;11.010;2022-09-06T02:09:17;11.00;66.70
39655;DHT22;25336;59.944;11.010;2022-09-06T02:11:53;11.00;66.10
39655;DHT22;25336;59.944;11.010;2022-09-06T02:14:32;11.00;66.40
39655;DHT22;25336;59.944;11.010;2022-09-06T02:17:00;10.90;66.40
39655;DHT22;25336;59.944;11.010;2022-09-06T02:19:34;10.90;66.20
39655;DHT22;25336;59.944;11.010;2022-09-06T02:22:03;10.90;66.70
39655;DHT22;25336;59.944;11.010;2022-09-06T02:24:32;10.90;66.70
39655;DHT22;25336;59.944;11.010;2022-09-06T02:27:02;10.50;66.60
39655;DHT22;25336;59.944;11.010;2022-09-06T02:29:27;10.90;66.80
39655;DHT22;25336;59.944;11.010;2022-09-06T02:32:00;10.80;66.50
39655;DHT22;25336;59.944;11.010;2022-09-06T02:34:28;10.80;66.60
39655;DHT22;25336;59.944;11.010;2022-09-06T02:36:54;10.80;66.40
39655;DHT22;25336;59.944;11.010;2022-09-06T02:39:20;11.00;66.40
39655;DHT22;25336;59.944;11.010;2022-09-06T02:41:46;10.80;66.20
39655;DHT22;25336;59.944;11.010;2022-09-06T02:44:13;11.40;66.70
39655;DHT22;25336;59.944;11.010;2022-09-06T02:46:39;12.10;67.10
39655;DHT22;25336;59.944;11.010;2022-09-06T02:49:05;11.00;66.40
39655;DHT22;25336;59.944;11.010;2022-09-06T02:51:35;10.60;66.20
39655;DHT22;25336;59.944;11.010;2022-09-06T02:54:01;10.60;66.40
39655;DHT22;25336;59.944;11.010;2022-09-06T02:56:27;10.60;66.30
39655;DHT22;25336;59.944;11.010;2022-09-06T02:58:52;10.50;66.20
39655;DHT22;25336;59.944;11.010;2022-09-06T03:01:18;10.90;66.70
39655;DHT22;25336;59.944;11.010;2022-09-06T03:03:44;11.40;67.20
39655;DHT22;25336;59.944;11.010;2022-09-06T03:06:09;10.40;66.70
39655;DHT22;25336;59.944;11.010;2022-09-06T03:08:35;11.20;67.10
39655;DHT22;25336;59.944;11.010;2022-09-06T03:11:01;10.40;66.60
39655;DHT22;25336;59.944;11.010;2022-09-06T03:13:27;10.40;66.60
39655;DHT22;25336;59.944;11.010;2022-09-06T03:15:55;10.40;66.60
39655;DHT22;25336;59.944;11.010;2022-09-06T03:18:22;10.80;66.80
39655;DHT22;25336;59.944;11.010;2022-09-06T03:20:50;10.30;66.50
39655;DHT22;25336;59.944;11.010;2022-09-06T03:23:19;10.30;66.50
39655;DHT22;25336;59.944;11.010;2022-09-06T03:25:45;10.30;66.60
39655;DHT22;25336;59.944;11.010;2022-09-06T03:28:12;10.30;66.80
39655;DHT22;25336;59.944;11.010;2022-09-06T03:30:38;10.20;66.90
39655;DHT22;25336;59.944;11.010;2022-09-06T03:33:04;10.20;67.00
39655;DHT22;25336;59.944;11.010;2022-09-06T03:35:30;11.40;67.60
39655;DHT22;25336;59.944;11.010;2022-09-06T03:37:56;10.20;66.70
39655;DHT22;25336;59.944;11.010;2022-09-06T03:40:21;11.20;67.30
39655;DHT22;25336;59.944;11.010;2022-09-06T03:42:47;10.10;66.80
39655;DHT22;25336;59.944;11.010;2022-09-06T03:45:13;10.10;67.00
39655;DHT22;25336;59.944;11.010;2022-09-06T03:47:39;10.10;67.00
39655;DHT22;25336;59.944;11.010;2022-09-06T03:50:05;10.10;67.00
39655;DHT22;25336;59.944;11.010;2022-09-06T03:52:31;10.70;67.60
39655;DHT22;25336;59.944;11.010;2022-09-06T03:54:57;10.30;67.40
39655;DHT22;25336;59.944;11.010;2022-09-06T03:57:23;10.70;67.70
39655;DHT22;25336;59.944;11.010;2022-09-06T03:59:48;10.00;67.40
39655;DHT22;25336;59.944;11.010;2022-09-06T04:02:14;10.00;67.60
39655;DHT22;25336;59.944;11.010;2022-09-06T04:04:39;10.00;67.70
39655;DHT22;25336;59.944;11.010;2022-09-06T04:07:05;10.00;67.70
39655;DHT22;25336;59.944;11.010;2022-09-06T04:09:31;11.00;68.50
39655;DHT22;25336;59.944;11.010;2022-09-06T04:11:56;10.00;67.80
39655;DHT22;25336;59.944;11.010;2022-09-06T04:14:22;10.00;67.90
39655;DHT22;25336;59.944;11.010;2022-09-06T04:16:48;10.00;68.00
39655;DHT22;25336;59.944;11.010;2022-09-06T04:19:14;10.10;68.10
39655;DHT22;25336;59.944;11.010;2022-09-06T04:21:40;10.10;68.30
39655;DHT22;25336;59.944;11.010;2022-09-06T04:24:06;10.10;68.60
39655;DHT22;25336;59.944;11.010;2022-09-06T04:26:32;11.40;69.70
39655;DHT22;25336;59.944;11.010;2022-09-06T04:28:57;10.20;69.10
39655;DHT22;25336;59.944;11.010;2022-09-06T04:31:23;10.20;69.20
39655;DHT22;25336;59.944;11.010;2022-09-06T04:33:48;10.20;69.30
39655;DHT22;25336;59.944;11.010;2022-09-06T04:36:14;10.20;69.50
39655;DHT22;25336;59.944;11.010;2022-09-06T04:38:41;10.30;69.60
39655;DHT22;25336;59.944;11.010;2022-09-06T04:41:09;10.30;69.60
39655;DHT22;25336;59.944;11.010;2022-09-06T04:43:35;11.60;70.50
39655;DHT22;25336;59.944;11.010;2022-09-06T04:46:27;10.40;69.60
39655;DHT22;25336;59.944;11.010;2022-09-06T04:48:55;10.40;70.40
39655;DHT22;25336;59.944;11.010;2022-09-06T04:51:22;10.40;69.40
39655;DHT22;25336;59.944;11.010;2022-09-06T04:53:48;10.40;69.20
39655;DHT22;25336;59.944;11.010;2022-09-06T04:56:16;11.10;69.50
39655;DHT22;25336;59.944;11.010;2022-09-06T04:58:43;10.40;69.30
39655;DHT22;25336;59.944;11.010;2022-09-06T05:01:09;10.40;69.20
39655;DHT22;25336;59.944;11.010;2022-09-06T05:03:35;11.90;70.10
39655;DHT22;25336;59.944;11.010;2022-09-06T05:06:21;10.40;69.00
39655;DHT22;25336;59.944;11.010;2022-09-06T05:08:47;10.80;69.90
39655;DHT22;25336;59.944;11.010;2022-09-06T05:11:13;10.40;68.90
39655;DHT22;25336;59.944;11.010;2022-09-06T05:13:39;10.40;69.00
39655;DHT22;25336;59.944;11.010;2022-09-06T05:16:07;10.40;69.10
39655;DHT22;25336;59.944;11.010;2022-09-06T05:18:33;10.40;69.20
39655;DHT22;25336;59.944;11.010;2022-09-06T05:20:59;10.30;69.10
39655;DHT22;25336;59.944;11.010;2022-09-06T05:23:26;10.40;69.20
39655;DHT22;25336;59.944;11.010;2022-09-06T05:25:52;11.00;69.60
39655;DHT22;25336;59.944;11.010;2022-09-06T05:28:18;10.40;69.30
39655;DHT22;25336;59.944;11.010;2022-09-06T05:30:44;10.40;69.50
39655;DHT22;25336;59.944;11.010;2022-09-06T05:33:11;10.40;69.50
39655;DHT22;25336;59.944;11.010;2022-09-06T05:35:37;10.40;69.70
39655;DHT22;25336;59.944;11.010;2022-09-06T05:38:02;10.40;69.60
39655;DHT22;25336;59.944;11.010;2022-09-06T05:40:28;10.80;69.80
39655;DHT22;25336;59.944;11.010;2022-09-06T05:42:54;10.40;69.60
39655;DHT22;25336;59.944;11.010;2022-09-06T05:45:20;9.20;68.90
39655;DHT22;25336;59.944;11.010;2022-09-06T05:47:45;11.10;70.10
39655;DHT22;25336;59.944;11.010;2022-09-06T05:50:11;11.00;69.90
39655;DHT22;25336;59.944;11.010;2022-09-06T05:52:37;10.10;69.30
39655;DHT22;25336;59.944;11.010;2022-09-06T05:55:04;11.50;70.20
39655;DHT22;25336;59.944;11.010;2022-09-06T05:57:30;10.50;69.70
39655;DHT22;25336;59.944;11.010;2022-09-06T05:59:56;10.40;69.70
39655;DHT22;25336;59.944;11.010;2022-09-06T06:02:22;10.50;69.90
39655;DHT22;25336;59.944;11.010;2022-09-06T06:04:48;10.50;70.40
39655;DHT22;25336;59.944;11.010;2022-09-06T06:07:14;10.50;70.20
39655;DHT22;25336;59.944;11.010;2022-09-06T06:09:40;10.60;70.40
39655;DHT22;25336;59.944;11.010;2022-09-06T06:12:06;10.60;70.70
39655;DHT22;25336;59.944;11.010;2022-09-06T06:14:32;10.60;70.90
39655;DHT22;25336;59.944;11.010;2022-09-06T06:16:57;10.60;71.10
39655;DHT22;25336;59.944;11.010;2022-09-06T06:19:24;10.70;71.30
39655;DHT22;25336;59.944;11.010;2022-09-06T06:21:51;10.70;71.50
39655;DHT22;25336;59.944;11.010;2022-09-06T06:24:17;10.70;71.60
39655;DHT22;25336;59.944;11.010;2022-09-06T06:26:43;10.80;71.70
39655;DHT22;25336;59.944;11.010;2022-09-06T06:29:08;11.30;72.20
39655;DHT22;25336;59.944;11.010;2022-09-06T06:31:36;10.90;72.30
39655;DHT22;25336;59.944;11.010;2022-09-06T06:34:01;9.30;71.30
39655;DHT22;25336;59.944;11.010;2022-09-06T06:36:29;11.00;72.50
39655;DHT22;25336;59.944;11.010;2022-09-06T06:38:56;11.00;72.60
39655;DHT22;25336;59.944;11.010;2022-09-06T06:41:24;11.00;72.70
39655;DHT22;25336;59.944;11.010;2022-09-06T06:43:51;11.80;73.30
39655;DHT22;25336;59.944;11.010;2022-09-06T06:46:18;12.60;73.70
39655;DHT22;25336;59.944;11.010;2022-09-06T06:48:44;11.30;73.00
39655;DHT22;25336;59.944;11.010;2022-09-06T06:51:16;11.30;73.00
39655;DHT22;25336;59.944;11.010;2022-09-06T06:53:43;11.40;73.20
39655;DHT22;25336;59.944;11.010;2022-09-06T06:56:36;11.40;73.00
39655;DHT22;25336;59.944;11.010;2022-09-06T06:59:04;11.50;73.20
39655;DHT22;25336;59.944;11.010;2022-09-06T07:01:31;11.60;72.50
39655;DHT22;25336;59.944;11.010;2022-09-06T07:03:57;11.60;72.50
39655;DHT22;25336;59.944;11.010;2022-09-06T07:06:23;11.70;72.60
39655;DHT22;25336;59.944;11.010;2022-09-06T07:08:49;12.60;72.90
39655;DHT22;25336;59.944;11.010;2022-09-06T07:11:16;11.80;72.30
39655;DHT22;25336;59.944;11.010;2022-09-06T07:13:42;11.90;72.50
39655;DHT22;25336;59.944;11.010;2022-09-06T07:16:17;11.90;72.60
39655;DHT22;25336;59.944;11.010;2022-09-06T07:18:43;12.00;72.80
39655;DHT22;25336;59.944;11.010;2022-09-06T07:21:12;12.70;73.00
39655;DHT22;25336;59.944;11.010;2022-09-06T07:23:38;12.20;72.60
39655;DHT22;25336;59.944;11.010;2022-09-06T07:26:05;12.70;72.80
39655;DHT22;25336;59.944;11.010;2022-09-06T07:28:30;12.40;72.50
39655;DHT22;25336;59.944;11.010;2022-09-06T07:30:57;12.50;72.70
39655;DHT22;25336;59.944;11.010;2022-09-06T07:33:23;13.60;73.30
39655;DHT22;25336;59.944;11.010;2022-09-06T07:36:00;12.60;72.40
39655;DHT22;25336;59.944;11.010;2022-09-06T07:38:27;13.00;73.00
39655;DHT22;25336;59.944;11.010;2022-09-06T07:40:55;12.80;72.30
39655;DHT22;25336;59.944;11.010;2022-09-06T07:43:21;12.90;72.10
39655;DHT22;25336;59.944;11.010;2022-09-06T07:45:48;13.00;72.00
39655;DHT22;25336;59.944;11.010;2022-09-06T07:48:13;13.10;72.00
39655;DHT22;25336;59.944;11.010;2022-09-06T07:50:39;13.10;72.00
39655;DHT22;25336;59.944;11.010;2022-09-06T07:53:09;13.20;72.10
39655;DHT22;25336;59.944;11.010;2022-09-06T07:55:34;14.20;72.70
39655;DHT22;25336;59.944;11.010;2022-09-06T07:58:00;13.40;72.00
39655;DHT22;25336;59.944;11.010;2022-09-06T08:00:26;13.50;72.10
39655;DHT22;25336;59.944;11.010;2022-09-06T08:02:51;13.60;72.10
39655;DHT22;25336;59.944;11.010;2022-09-06T08:05:17;13.70;72.10
39655;DHT22;25336;59.944;11.010;2022-09-06T08:07:43;13.70;72.30
39655;DHT22;25336;59.944;11.010;2022-09-06T08:10:08;13.80;72.30
39655;DHT22;25336;59.944;11.010;2022-09-06T08:12:34;13.90;72.40
39655;DHT22;25336;59.944;11.010;2022-09-06T08:15:03;14.10;72.40
39655;DHT22;25336;59.944;11.010;2022-09-06T08:17:29;14.10;72.20
39655;DHT22;25336;59.944;11.010;2022-09-06T08:19:59;14.30;72.20
39655;DHT22;25336;59.944;11.010;2022-09-06T08:22:25;14.40;72.00
39655;DHT22;25336;59.944;11.010;2022-09-06T08:24:50;14.50;71.80
39655;DHT22;25336;59.944;11.010;2022-09-06T08:27:16;14.60;71.50
39655;DHT22;25336;59.944;11.010;2022-09-06T08:29:41;14.70;71.20
39655;DHT22;25336;59.944;11.010;2022-09-06T08:32:10;14.80;71.00
39655;DHT22;25336;59.944;11.010;2022-09-06T08:34:35;14.90;70.80
39655;DHT22;25336;59.944;11.010;2022-09-06T08:37:01;15.00;70.50
39655;DHT22;25336;59.944;11.010;2022-09-06T08:39:26;15.10;70.40
39655;DHT22;25336;59.944;11.010;2022-09-06T08:41:57;15.20;70.40
39655;DHT22;25336;59.944;11.010;2022-09-06T08:47:09;15.40;70.40
39655;DHT22;25336;59.944;11.010;2022-09-06T08:49:44;15.50;70.40
39655;DHT22;25336;59.944;11.010;2022-09-06T08:52:19;15.60;70.20
39655;DHT22;25336;59.944;11.010;2022-09-06T08:55:33;15.70;70.00
39655;DHT22;25336;59.944;11.010;2022-09-06T09:00:53;16.00;69.50
39655;DHT22;25336;59.944;11.010;2022-09-06T09:03:31;16.10;69.30
39655;DHT22;25336;59.944;11.010;2022-09-06T09:05:57;16.20;68.70
39655;DHT22;25336;59.944;11.010;2022-09-06T09:11:17;16.50;68.30
39655;DHT22;25336;59.944;11.010;2022-09-06T09:13:54;16.60;68.10
39655;DHT22;25336;59.944;11.010;2022-09-06T09:16:21;16.70;68.00
39655;DHT22;25336;59.944;11.010;2022-09-06T09:19:02;16.80;67.80
39655;DHT22;25336;59.944;11.010;2022-09-06T09:21:31;16.90;67.10
39655;DHT22;25336;59.944;11.010;2022-09-06T09:24:02;17.10;67.20
39655;DHT22;25336;59.944;11.010;2022-09-06T09:26:44;17.20;66.60
39655;DHT22;25336;59.944;11.010;2022-09-06T09:29:13;17.30;65.80
39655;DHT22;25336;59.944;11.010;2022-09-06T09:31:39;17.50;65.90
39655;DHT22;25336;59.944;11.010;2022-09-06T09:34:11;17.60;65.70
39655;DHT22;25336;59.944;11.010;2022-09-06T09:36:37;17.80;64.10
39655;DHT22;25336;59.944;11.010;2022-09-06T09:39:10;17.90;64.10
39655;DHT22;25336;59.944;11.010;2022-09-06T09:41:39;18.10;63.50
39655;DHT22;25336;59.944;11.010;2022-09-06T09:44:15;18.20;61.50
39655;DHT22;25336;59.944;11.010;2022-09-06T09:46:42;18.40;60.30
39655;DHT22;25336;59.944;11.010;2022-09-06T09:49:27;18.50;60.30
39655;DHT22;25336;59.944;11.010;2022-09-06T09:52:10;18.60;59.20
39655;DHT22;25336;59.944;11.010;2022-09-06T09:54:38;18.70;58.00
39655;DHT22;25336;59.944;11.010;2022-09-06T09:57:10;18.90;58.80
39655;DHT22;25336;59.944;11.010;2022-09-06T10:02:32;19.10;57.90
39655;DHT22;25336;59.944;11.010;2022-09-06T10:05:05;19.20;56.90
39655;DHT22;25336;59.944;11.010;2022-09-06T10:07:40;19.30;57.10
39655;DHT22;25336;59.944;11.010;2022-09-06T10:10:11;19.40;56.70
39655;DHT22;25336;59.944;11.010;2022-09-06T10:12:40;19.50;55.90
39655;DHT22;25336;59.944;11.010;2022-09-06T10:15:12;19.60;55.50
39655;DHT22;25336;59.944;11.010;2022-09-06T10:17:56;19.60;54.90
39655;DHT22;25336;59.944;11.010;2022-09-06T10:20:31;19.70;54.80
39655;DHT22;25336;59.944;11.010;2022-09-06T10:36:22;20.00;52.30
39655;DHT22;25336;59.944;11.010;2022-09-06T10:41:43;20.10;52.30
39655;DHT22;25336;59.944;11.010;2022-09-06T10:44:43;20.10;52.70
39655;DHT22;25336;59.944;11.010;2022-09-06T10:47:14;20.20;52.50
39655;DHT22;25336;59.944;11.010;2022-09-06T10:49:43;20.20;52.50
39655;DHT22;25336;59.944;11.010;2022-09-06T10:52:15;20.30;52.40
39655;DHT22;25336;59.944;11.010;2022-09-06T10:54:41;20.30;52.30
39655;DHT22;25336;59.944;11.010;2022-09-06T10:57:18;20.40;53.00
39655;DHT22;25336;59.944;11.010;2022-09-06T10:59:50;20.50;52.70
39655;DHT22;25336;59.944;11.010;2022-09-06T11:05:07;20.60;50.80
39655;DHT22;25336;59.944;11.010;2022-09-06T11:07:41;20.60;51.80
39655;DHT22;25336;59.944;11.010;2022-09-06T11:10:23;20.70;51.50
39655;DHT22;25336;59.944;11.010;2022-09-06T11:13:09;20.80;51.40
39655;DHT22;25336;59.944;11.010;2022-09-06T11:24:15;21.00;50.30
39655;DHT22;25336;59.944;11.010;2022-09-06T11:29:40;21.20;50.40
39655;DHT22;25336;59.944;11.010;2022-09-06T11:32:43;21.20;50.90
39655;DHT22;25336;59.944;11.010;2022-09-06T11:35:32;21.30;49.80
39655;DHT22;25336;59.944;11.010;2022-09-06T11:38:10;21.30;49.70
39655;DHT22;25336;59.944;11.010;2022-09-06T11:41:02;21.40;50.20
39655;DHT22;25336;59.944;11.010;2022-09-06T11:46:06;21.60;49.50
39655;DHT22;25336;59.944;11.010;2022-09-06T11:48:47;21.70;49.10
39655;DHT22;25336;59.944;11.010;2022-09-06T11:51:40;21.70;48.90
39655;DHT22;25336;59.944;11.010;2022-09-06T11:57:00;21.90;49.00
39655;DHT22;25336;59.944;11.010;2022-09-06T11:59:38;22.00;48.50
39655;DHT22;25336;59.944;11.010;2022-09-06T12:07:29;22.10;47.80
39655;DHT22;25336;59.944;11.010;2022-09-06T12:09:55;22.20;47.60
39655;DHT22;25336;59.944;11.010;2022-09-06T12:12:57;22.90;47.60
39655;DHT22;25336;59.944;11.010;2022-09-06T12:15:39;22.30;46.90
39655;DHT22;25336;59.944;11.010;2022-09-06T12:18:07;22.30;46.60
39655;DHT22;25336;59.944;11.010;2022-09-06T12:26:02;22.40;46.00
39655;DHT22;25336;59.944;11.010;2022-09-06T12:28:49;22.40;46.60
39655;DHT22;25336;59.944;11.010;2022-09-06T12:31:38;22.40;46.10
39655;DHT22;25336;59.944;11.010;2022-09-06T12:34:30;22.50;45.80
39655;DHT22;25336;59.944;11.010;2022-09-06T12:37:07;22.50;45.40
39655;DHT22;25336;59.944;11.010;2022-09-06T12:39:35;22.50;46.30
39655;DHT22;25336;59.944;11.010;2022-09-06T12:42:02;22.60;46.80
39655;DHT22;25336;59.944;11.010;2022-09-06T12:44:34;22.60;47.10
39655;DHT22;25336;59.944;11.010;2022-09-06T12:47:29;22.60;45.80
39655;DHT22;25336;59.944;11.010;2022-09-06T12:50:16;22.70;44.80
39655;DHT22;25336;59.944;11.010;2022-09-06T12:53:03;22.70;45.00
39655;DHT22;25336;59.944;11.010;2022-09-06T12:55:36;22.80;45.80
39655;DHT22;25336;59.944;11.010;2022-09-06T12:58:08;22.80;45.50
39655;DHT22;25336;59.944;11.010;2022-09-06T13:00:43;22.90;45.30
39655;DHT22;25336;59.944;11.010;2022-09-06T13:05:54;23.00;45.20
39655;DHT22;25336;59.944;11.010;2022-09-06T13:08:56;23.00;45.20
39655;DHT22;25336;59.944;11.010;2022-09-06T13:13:55;23.10;46.40
39655;DHT22;25336;59.944;11.010;2022-09-06T13:16:27;23.20;45.30
39655;DHT22;25336;59.944;11.010;2022-09-06T13:19:10;23.10;44.30
39655;DHT22;25336;59.944;11.010;2022-09-06T13:21:38;23.10;44.00
39655;DHT22;25336;59.944;11.010;2022-09-06T13:24:41;23.10;44.30
39655;DHT22;25336;59.944;11.010;2022-09-06T13:27:42;23.20;44.60
39655;DHT22;25336;59.944;11.010;2022-09-06T13:30:34;23.20;44.10
39655;DHT22;25336;59.944;11.010;2022-09-06T13:33:02;23.30;43.70
39655;DHT22;25336;59.944;11.010;2022-09-06T13:35:34;23.30;44.10
39655;DHT22;25336;59.944;11.010;2022-09-06T13:38:37;23.30;43.20
39655;DHT22;25336;59.944;11.010;2022-09-06T13:41:06;23.30;42.70
39655;DHT22;25336;59.944;11.010;2022-09-06T13:43:44;23.20;43.40
39655;DHT22;25336;59.944;11.010;2022-09-06T13:46:11;23.20;42.60
39655;DHT22;25336;59.944;11.010;2022-09-06T13:48:37;23.10;43.00
39655;DHT22;25336;59.944;11.010;2022-09-06T13:51:08;23.10;43.20
39655;DHT22;25336;59.944;11.010;2022-09-06T13:53:34;23.70;42.90
39655;DHT22;25336;59.944;11.010;2022-09-06T13:56:00;23.10;42.80
39655;DHT22;25336;59.944;11.010;2022-09-06T13:58:26;23.10;42.70
39655;DHT22;25336;59.944;11.010;2022-09-06T14:00:53;23.20;42.70
39655;DHT22;25336;59.944;11.010;2022-09-06T14:03:22;23.20;42.90
39655;DHT22;25336;59.944;11.010;2022-09-06T14:05:49;23.20;43.30
39655;DHT22;25336;59.944;11.010;2022-09-06T14:08:15;23.30;43.10
39655;DHT22;25336;59.944;11.010;2022-09-06T14:10:42;23.30;42.80
39655;DHT22;25336;59.944;11.010;2022-09-06T14:13:08;23.40;43.00
39655;DHT22;25336;59.944;11.010;2022-09-06T14:15:37;23.40;42.50
39655;DHT22;25336;59.944;11.010;2022-09-06T14:18:03;23.40;42.50
39655;DHT22;25336;59.944;11.010;2022-09-06T14:20:29;23.50;42.60
39655;DHT22;25336;59.944;11.010;2022-09-06T14:22:54;23.60;42.50
39655;DHT22;25336;59.944;11.010;2022-09-06T14:25:20;23.60;42.20
39655;DHT22;25336;59.944;11.010;2022-09-06T14:27:46;23.70;42.10
39655;DHT22;25336;59.944;11.010;2022-09-06T14:30:13;23.70;41.80
39655;DHT22;25336;59.944;11.010;2022-09-06T14:32:38;23.70;41.80
39655;DHT22;25336;59.944;11.010;2022-09-06T14:35:04;23.70;41.70
39655;DHT22;25336;59.944;11.010;2022-09-06T14:37:31;23.70;41.30
39655;DHT22;25336;59.944;11.010;2022-09-06T14:39:57;23.80;41.20
39655;DHT22;25336;59.944;11.010;2022-09-06T14:42:23;23.80;41.20
39655;DHT22;25336;59.944;11.010;2022-09-06T14:44:49;23.80;41.50
39655;DHT22;25336;59.944;11.010;2022-09-06T14:47:15;23.80;41.20
39655;DHT22;25336;59.944;11.010;2022-09-06T14:49:41;23.80;41.10
39655;DHT22;25336;59.944;11.010;2022-09-06T14:52:07;23.80;40.80
39655;DHT22;25336;59.944;11.010;2022-09-06T14:54:32;23.80;40.70
39655;DHT22;25336;59.944;11.010;2022-09-06T14:56:58;23.80;40.70
39655;DHT22;25336;59.944;11.010;2022-09-06T14:59:24;23.70;40.70
39655;DHT22;25336;59.944;11.010;2022-09-06T15:01:50;23.70;40.40
39655;DHT22;25336;59.944;11.010;2022-09-06T15:04:16;23.70;41.00
39655;DHT22;25336;59.944;11.010;2022-09-06T15:06:42;23.60;40.60
39655;DHT22;25336;59.944;11.010;2022-09-06T15:09:16;24.80;41.00
39655;DHT22;25336;59.944;11.010;2022-09-06T15:11:45;23.60;41.00
39655;DHT22;25336;59.944;11.010;2022-09-06T15:16:46;23.60;40.20
39655;DHT22;25336;59.944;11.010;2022-09-06T15:19:12;23.60;41.00
39655;DHT22;25336;59.944;11.010;2022-09-06T15:21:37;23.60;41.10
39655;DHT22;25336;59.944;11.010;2022-09-06T15:24:04;23.60;40.70
39655;DHT22;25336;59.944;11.010;2022-09-06T15:26:31;23.60;40.40
39655;DHT22;25336;59.944;11.010;2022-09-06T15:28:57;23.60;40.80
39655;DHT22;25336;59.944;11.010;2022-09-06T15:31:23;23.60;40.70
39655;DHT22;25336;59.944;11.010;2022-09-06T15:33:50;23.60;40.70
39655;DHT22;25336;59.944;11.010;2022-09-06T15:36:18;23.60;40.70
39655;DHT22;25336;59.944;11.010;2022-09-06T15:38:46;23.60;40.50
39655;DHT22;25336;59.944;11.010;2022-09-06T15:41:18;23.50;40.80
39655;DHT22;25336;59.944;11.010;2022-09-06T15:43:46;23.50;40.50
39655;DHT22;25336;59.944;11.010;2022-09-06T15:46:19;23.50;40.50
39655;DHT22;25336;59.944;11.010;2022-09-06T15:48:49;23.40;40.60
39655;DHT22;25336;59.944;11.010;2022-09-06T15:51:18;23.40;41.20
39655;DHT22;25336;59.944;11.010;2022-09-06T15:53:45;23.30;41.50
39655;DHT22;25336;59.944;11.010;2022-09-06T15:56:13;23.30;41.70
39655;DHT22;25336;59.944;11.010;2022-09-06T15:58:39;23.40;41.60
39655;DHT22;25336;59.944;11.010;2022-09-06T16:01:20;23.40;41.50
39655;DHT22;25336;59.944;11.010;2022-09-06T16:06:37;23.30;41.30
39655;DHT22;25336;59.944;11.010;2022-09-06T16:09:08;23.30;41.00
39655;DHT22;25336;59.944;11.010;2022-09-06T16:11:34;23.30;41.20
39655;DHT22;25336;59.944;11.010;2022-09-06T16:14:05;23.30;41.40
39655;DHT22;25336;59.944;11.010;2022-09-06T16:16:31;23.30;41.50
39655;DHT22;25336;59.944;11.010;2022-09-06T16:18:57;23.30;41.90
39655;DHT22;25336;59.944;11.010;2022-09-06T16:21:29;23.20;41.50
39655;DHT22;25336;59.944;11.010;2022-09-06T16:24:01;23.20;41.50
39655;DHT22;25336;59.944;11.010;2022-09-06T16:26:30;23.20;41.60
39655;DHT22;25336;59.944;11.010;2022-09-06T16:28:56;23.10;41.50
39655;DHT22;25336;59.944;11.010;2022-09-06T16:31:22;23.10;41.70
39655;DHT22;25336;59.944;11.010;2022-09-06T16:33:49;23.10;41.80
39655;DHT22;25336;59.944;11.010;2022-09-06T16:36:16;23.00;42.00
39655;DHT22;25336;59.944;11.010;2022-09-06T16:38:42;23.00;42.60
39655;DHT22;25336;59.944;11.010;2022-09-06T16:41:11;23.00;42.10
39655;DHT22;25336;59.944;11.010;2022-09-06T16:43:37;23.00;42.10
39655;DHT22;25336;59.944;11.010;2022-09-06T16:46:03;22.90;42.40
39655;DHT22;25336;59.944;11.010;2022-09-06T16:48:30;24.10;43.30
39655;DHT22;25336;59.944;11.010;2022-09-06T16:50:56;22.90;42.70
39655;DHT22;25336;59.944;11.010;2022-09-06T16:53:22;22.80;42.90
39655;DHT22;25336;59.944;11.010;2022-09-06T16:55:48;22.80;43.10
39655;DHT22;25336;59.944;11.010;2022-09-06T16:58:15;22.80;42.90
39655;DHT22;25336;59.944;11.010;2022-09-06T17:00:41;22.80;42.90
39655;DHT22;25336;59.944;11.010;2022-09-06T17:03:09;22.70;43.10
39655;DHT22;25336;59.944;11.010;2022-09-06T17:05:37;22.70;43.40
39655;DHT22;25336;59.944;11.010;2022-09-06T17:08:03;22.70;44.40
39655;DHT22;25336;59.944;11.010;2022-09-06T17:10:29;22.60;43.90